< < Back
Terminal Aerodrome Forecast


Current Version              Previous Versions:   1  2  3  4  5  6  7  8  9  

Terminal Aerodrome Forecast

260
FTUS42 KGSP 302321
TAFGSP
TAF
KGSP 302321Z 3100/3124 34008KT P6SM SKC
     FM310600 36004KT P6SM SKC
     FM311500 26003KT P6SM SKC
     FM312000 22007KT P6SM SCT140=



Latest METAR

738
SAUS70 KWBC 010000 RRN
MTRGSP
METAR KGSP 312353Z 20004KT 10SM CLR 08/M08 A3030 RMK AO2 SLP264
T00781083 10117 20072 53005


USA.gov is the U.S. government's official web portal to all federal, state and local government web resources and services.